createdAt,value
2017-07-27T00:00:56.585Z,0
2017-07-27T00:02:09.143Z,0
2017-07-27T00:03:21.732Z,0
2017-07-27T00:04:34.285Z,0
2017-07-27T00:05:46.870Z,0
2017-07-27T00:06:59.466Z,0
2017-07-27T00:08:12.072Z,0
2017-07-27T00:09:24.358Z,0
2017-07-27T00:10:36.006Z,0
2017-07-27T00:11:48.577Z,0
2017-07-27T00:13:01.145Z,0
2017-07-27T00:14:13.384Z,0
2017-07-27T00:15:26.023Z,0
2017-07-27T00:16:38.565Z,0
2017-07-27T00:17:51.161Z,0
2017-07-27T00:19:03.741Z,0
2017-07-27T00:20:15.981Z,0
2017-07-27T00:21:28.277Z,0
2017-07-27T00:22:40.852Z,0
2017-07-27T00:23:53.159Z,0
2017-07-27T00:25:05.736Z,0
2017-07-27T00:26:18.305Z,0
2017-07-27T00:27:30.563Z,0
2017-07-27T00:28:43.140Z,0
2017-07-27T00:29:55.087Z,0
2017-07-27T00:31:07.346Z,0
2017-07-27T00:32:19.922Z,0
2017-07-27T00:33:32.236Z,0
2017-07-27T00:34:44.820Z,0
2017-07-27T00:35:57.428Z,0
2017-07-27T00:37:09.698Z,0
2017-07-27T00:38:21.660Z,0
2017-07-27T00:39:34.206Z,0
2017-07-27T00:40:46.826Z,0
2017-07-27T00:41:58.734Z,0
2017-07-27T00:43:11.035Z,0
2017-07-27T00:44:23.640Z,0
2017-07-27T00:45:36.196Z,0
2017-07-27T00:46:48.517Z,0
2017-07-27T00:48:00.794Z,0
2017-07-27T00:49:13.378Z,0
2017-07-27T00:50:25.699Z,0
2017-07-27T00:51:38.342Z,0
2017-07-27T00:52:50.641Z,0
2017-07-27T00:54:03.262Z,0
2017-07-27T00:55:15.534Z,0
2017-07-27T00:56:27.748Z,0
2017-07-27T00:57:40.322Z,0
2017-07-27T00:58:52.297Z,0
2017-07-27T01:00:04.255Z,0
2017-07-27T01:01:16.883Z,0
2017-07-27T01:02:29.477Z,0
2017-07-27T01:03:41.741Z,0
2017-07-27T01:04:54.331Z,0
2017-07-27T01:06:06.365Z,0
2017-07-27T01:07:18.943Z,0
2017-07-27T01:08:31.243Z,0
2017-07-27T01:09:43.846Z,0
2017-07-27T01:10:56.391Z,0
2017-07-27T01:12:08.381Z,0
2017-07-27T01:13:20.916Z,0
2017-07-27T01:14:33.613Z,0
2017-07-27T01:15:45.918Z,0
2017-07-27T01:16:58.528Z,0
2017-07-27T01:18:10.785Z,0
2017-07-27T01:19:23.414Z,0
2017-07-27T01:20:35.717Z,0
2017-07-27T01:21:48.310Z,0
2017-07-27T01:23:00.325Z,0
2017-07-27T01:24:12.920Z,0
2017-07-27T01:25:25.201Z,0
2017-07-27T01:26:37.189Z,0
2017-07-27T01:27:49.768Z,0
2017-07-27T01:29:02.086Z,0
2017-07-27T01:30:14.413Z,0
2017-07-27T01:31:27.028Z,0
2017-07-27T01:32:39.301Z,0
2017-07-27T01:33:51.872Z,0
2017-07-27T01:35:04.148Z,0
2017-07-27T01:36:16.449Z,0
2017-07-27T01:37:28.751Z,0
2017-07-27T01:38:40.437Z,0
2017-07-27T01:39:52.726Z,0
2017-07-27T01:41:05.065Z,0
2017-07-27T01:42:17.368Z,0
2017-07-27T01:43:29.630Z,0
2017-07-27T01:44:42.136Z,0
2017-07-27T01:45:54.691Z,0
2017-07-27T01:47:07.052Z,0
2017-07-27T01:48:19.583Z,0
2017-07-27T01:49:32.199Z,0
2017-07-27T01:50:44.806Z,0
2017-07-27T01:51:57.098Z,0
2017-07-27T01:53:09.418Z,0
2017-07-27T01:54:21.743Z,0
2017-07-27T01:55:34.396Z,0
2017-07-27T01:56:46.997Z,0
2017-07-27T01:57:59.301Z,0
2017-07-27T01:59:11.877Z,0
2017-07-27T02:00:24.409Z,0
2017-07-27T02:01:36.959Z,0
2017-07-27T02:02:49.539Z,0
2017-07-27T02:04:02.161Z,0
2017-07-27T02:05:14.747Z,0
2017-07-27T02:06:27.040Z,0
2017-07-27T02:07:39.688Z,0
2017-07-27T02:08:52.312Z,0
2017-07-27T02:10:04.599Z,0
2017-07-27T02:11:16.249Z,0
2017-07-27T02:12:29.109Z,0
2017-07-27T02:13:41.759Z,0
2017-07-27T02:14:54.382Z,0
2017-07-27T02:16:06.704Z,0
2017-07-27T02:17:18.935Z,0
2017-07-27T02:18:31.244Z,0
2017-07-27T02:19:43.516Z,0
2017-07-27T02:20:56.037Z,0
2017-07-27T02:22:08.283Z,0
2017-07-27T02:23:20.543Z,0
2017-07-27T02:24:32.826Z,0
2017-07-27T02:25:44.758Z,0
2017-07-27T02:26:57.073Z,0
2017-07-27T02:28:09.668Z,0
2017-07-27T02:29:22.309Z,0
2017-07-27T02:30:34.855Z,0
2017-07-27T02:31:47.474Z,0
2017-07-27T02:32:59.687Z,0
2017-07-27T02:34:12.044Z,0
2017-07-27T02:35:24.600Z,0
2017-07-27T02:36:37.209Z,0
2017-07-27T02:37:49.782Z,0
2017-07-27T02:39:01.775Z,0
2017-07-27T02:40:14.363Z,0
2017-07-27T02:41:26.642Z,4
2017-07-27T02:42:39.239Z,4
2017-07-27T02:43:51.202Z,4
2017-07-27T02:45:03.746Z,4
2017-07-27T02:46:16.369Z,4
2017-07-27T02:47:28.897Z,4
2017-07-27T02:48:40.860Z,8
2017-07-27T02:49:52.825Z,4
2017-07-27T02:51:05.471Z,8
2017-07-27T02:52:18.066Z,8
2017-07-27T02:53:30.651Z,8
2017-07-27T02:54:42.705Z,16
2017-07-27T02:55:55.542Z,16
2017-07-27T02:57:08.165Z,20
2017-07-27T02:58:20.710Z,20
2017-07-27T02:59:33.273Z,28
2017-07-27T03:00:45.238Z,36
2017-07-27T03:01:57.559Z,36
2017-07-27T03:03:10.148Z,48
2017-07-27T03:04:22.426Z,52
2017-07-27T03:05:34.693Z,64
2017-07-27T03:06:47.311Z,76
2017-07-27T03:07:59.614Z,84
2017-07-27T03:09:12.186Z,100
2017-07-27T03:10:23.922Z,108
2017-07-27T03:11:36.194Z,124
2017-07-27T03:12:48.836Z,140
2017-07-27T03:14:00.800Z,156
2017-07-27T03:15:13.377Z,172
2017-07-27T03:16:25.950Z,192
2017-07-27T03:17:38.181Z,208
2017-07-27T03:18:50.172Z,236
2017-07-27T03:20:02.442Z,256
2017-07-27T03:21:14.719Z,276
2017-07-27T03:22:27.352Z,304
2017-07-27T03:23:39.336Z,332
2017-07-27T03:24:51.996Z,356
2017-07-27T03:26:04.259Z,384
2017-07-27T03:27:16.513Z,412
2017-07-27T03:28:28.433Z,440
2017-07-27T03:29:40.729Z,468
2017-07-27T03:30:53.291Z,508
2017-07-27T03:32:05.282Z,544
2017-07-27T03:33:17.890Z,580
2017-07-27T03:34:29.824Z,612
2017-07-27T03:35:42.440Z,644
2017-07-27T03:36:54.697Z,676
2017-07-27T03:38:07.275Z,716
2017-07-27T03:39:19.821Z,764
2017-07-27T03:40:32.085Z,808
2017-07-27T03:41:44.619Z,824
2017-07-27T03:42:57.195Z,812
2017-07-27T03:44:09.813Z,824
2017-07-27T03:45:22.131Z,860
2017-07-27T03:46:34.778Z,900
2017-07-27T03:47:47.342Z,948
2017-07-27T03:48:59.906Z,976
2017-07-27T03:50:12.212Z,984
2017-07-27T03:51:24.436Z,1008
2017-07-27T03:52:37.002Z,1060
2017-07-27T03:53:49.604Z,1108
2017-07-27T03:55:02.162Z,1136
2017-07-27T03:56:14.393Z,1172
2017-07-27T03:57:26.935Z,1212
2017-07-27T03:58:39.198Z,1260
2017-07-27T03:59:51.832Z,1324
2017-07-27T04:01:04.440Z,1384
2017-07-27T04:02:16.093Z,1460
2017-07-27T04:03:28.365Z,1544
2017-07-27T04:04:40.603Z,1616
2017-07-27T04:05:52.581Z,1656
2017-07-27T04:07:05.394Z,1660
2017-07-27T04:08:18.009Z,1668
2017-07-27T04:09:30.322Z,1704
2017-07-27T04:10:42.871Z,1784
2017-07-27T04:11:55.487Z,1864
2017-07-27T04:13:08.061Z,1960
2017-07-27T04:14:20.580Z,2084
2017-07-27T04:15:32.837Z,2216
2017-07-27T04:16:45.415Z,2336
2017-07-27T04:17:57.672Z,2416
2017-07-27T04:19:09.951Z,2384
2017-07-27T04:20:22.016Z,2344
2017-07-27T04:21:34.270Z,2348
2017-07-27T04:22:46.874Z,2380
2017-07-27T04:23:59.170Z,2380
2017-07-27T04:25:11.197Z,2340
2017-07-27T04:26:23.719Z,2316
2017-07-27T04:27:35.709Z,2344
2017-07-27T04:28:47.977Z,2460
2017-07-27T04:30:00.250Z,2604
2017-07-27T04:31:12.227Z,2700
2017-07-27T04:32:24.541Z,2792
2017-07-27T04:33:37.143Z,2848
2017-07-27T04:34:49.450Z,2824
2017-07-27T04:36:01.741Z,2804
2017-07-27T04:37:14.032Z,2760
2017-07-27T04:38:26.248Z,2728
2017-07-27T04:39:38.253Z,2704
2017-07-27T04:40:50.538Z,2672
2017-07-27T04:42:02.890Z,2672
2017-07-27T04:43:15.205Z,2732
2017-07-27T04:44:27.487Z,2776
2017-07-27T04:45:39.798Z,2964
2017-07-27T04:46:52.371Z,3332
2017-07-27T04:48:04.931Z,3636
2017-07-27T04:49:17.511Z,3884
2017-07-27T04:50:30.097Z,4164
2017-07-27T04:51:42.719Z,4564
2017-07-27T04:52:55.375Z,4932
2017-07-27T04:54:07.676Z,5092
2017-07-27T04:55:19.989Z,5284
2017-07-27T04:56:32.560Z,5568
2017-07-27T04:57:44.889Z,5744
2017-07-27T04:58:57.463Z,5816
2017-07-27T05:00:09.148Z,5892
2017-07-27T05:01:21.395Z,6044
2017-07-27T05:02:33.014Z,6212
2017-07-27T05:03:45.261Z,6260
2017-07-27T05:04:57.868Z,6240
2017-07-27T05:06:10.147Z,6284
2017-07-27T05:07:22.480Z,6720
2017-07-27T05:08:35.073Z,7568
2017-07-27T05:09:47.616Z,8392
2017-07-27T05:10:59.889Z,8920
2017-07-27T05:12:12.463Z,9160
2017-07-27T05:13:24.439Z,9204
2017-07-27T05:14:37.060Z,9312
2017-07-27T05:15:49.669Z,9508
2017-07-27T05:17:01.943Z,9356
2017-07-27T05:18:14.540Z,8848
2017-07-27T05:19:26.833Z,8232
2017-07-27T05:20:39.453Z,7896
2017-07-27T05:21:52.060Z,8112
2017-07-27T05:23:04.896Z,8248
2017-07-27T05:24:17.492Z,8252
2017-07-27T05:25:30.100Z,8292
2017-07-27T05:26:42.434Z,8128
2017-07-27T05:27:54.107Z,7676
2017-07-27T05:29:06.418Z,7392
2017-07-27T05:30:19.029Z,6548
2017-07-27T05:31:31.352Z,6168
2017-07-27T05:32:43.618Z,6184
2017-07-27T05:33:55.901Z,6344
2017-07-27T05:35:08.480Z,6304
2017-07-27T05:36:20.976Z,6548
2017-07-27T05:37:33.614Z,6076
2017-07-27T05:38:46.193Z,6292
2017-07-27T05:39:58.467Z,7404
2017-07-27T05:41:11.077Z,8024
2017-07-27T05:42:23.687Z,8036
2017-07-27T05:43:35.986Z,7860
2017-07-27T05:44:48.523Z,7836
2017-07-27T05:46:00.518Z,7504
2017-07-27T05:47:12.838Z,7540
2017-07-27T05:48:24.785Z,7284
2017-07-27T05:49:36.786Z,6972
2017-07-27T05:50:49.456Z,7588
2017-07-27T05:52:01.123Z,7912
2017-07-27T05:53:13.744Z,7772
2017-07-27T05:54:26.345Z,7828
2017-07-27T05:55:38.646Z,7816
2017-07-27T05:56:50.937Z,7768
2017-07-27T05:58:03.502Z,7904
2017-07-27T05:59:15.797Z,8016
2017-07-27T06:00:28.005Z,8196
2017-07-27T06:01:40.621Z,8388
2017-07-27T06:02:52.942Z,8456
2017-07-27T06:04:05.549Z,8448
2017-07-27T06:05:18.089Z,8376
2017-07-27T06:06:30.026Z,8404
2017-07-27T06:07:42.644Z,8404
2017-07-27T06:08:55.190Z,8716
2017-07-27T06:10:07.786Z,9612
2017-07-27T06:11:20.408Z,9384
2017-07-27T06:12:32.902Z,9088
2017-07-27T06:13:45.442Z,8808
2017-07-27T06:14:58.017Z,8844
2017-07-27T06:16:09.965Z,8816
2017-07-27T06:17:21.973Z,12112
2017-07-27T06:18:34.533Z,14000
2017-07-27T06:19:46.852Z,13480
2017-07-27T06:20:59.426Z,12180
2017-07-27T06:22:11.919Z,9244
2017-07-27T06:23:24.177Z,8932
2017-07-27T06:24:36.480Z,9836
2017-07-27T06:25:49.088Z,16996
2017-07-27T06:27:01.665Z,16960
2017-07-27T06:28:13.968Z,12124
2017-07-27T06:29:26.182Z,17512
2017-07-27T06:30:38.517Z,25120
2017-07-27T06:31:50.769Z,21056
2017-07-27T06:33:03.380Z,18400
2017-07-27T06:34:15.979Z,24928
2017-07-27T06:35:27.626Z,30336
2017-07-27T06:36:40.172Z,26592
2017-07-27T06:37:52.710Z,41248
2017-07-27T06:39:05.249Z,36736
2017-07-27T06:40:17.838Z,56992
2017-07-27T06:41:30.385Z,51040
2017-07-27T06:42:42.357Z,49120
2017-07-27T06:43:54.628Z,51360
2017-07-27T06:45:07.217Z,47968
2017-07-27T06:46:19.466Z,49536
2017-07-27T06:47:32.067Z,41376
2017-07-27T06:48:44.448Z,47104
2017-07-27T06:49:56.476Z,44800
2017-07-27T06:51:09.003Z,46496
2017-07-27T06:52:21.595Z,48064
2017-07-27T06:53:33.289Z,40768
2017-07-27T06:54:45.585Z,27104
2017-07-27T06:55:58.162Z,26560
2017-07-27T06:57:10.468Z,23104
2017-07-27T06:58:23.054Z,25696
2017-07-27T06:59:35.642Z,34176
2017-07-27T07:00:47.901Z,39328
2017-07-27T07:02:00.553Z,38848
2017-07-27T07:03:12.536Z,49184
2017-07-27T07:04:24.811Z,50880
2017-07-27T07:05:37.437Z,50720
2017-07-27T07:06:50.052Z,52896
2017-07-27T07:08:02.626Z,54016
2017-07-27T07:09:14.966Z,56768
2017-07-27T07:10:27.007Z,54432
2017-07-27T07:11:39.628Z,55872
2017-07-27T07:12:51.899Z,56032
2017-07-27T07:14:04.154Z,58912
2017-07-27T07:15:16.433Z,63680
2017-07-27T07:16:29.037Z,63360
2017-07-27T07:17:41.311Z,63424
2017-07-27T07:18:53.606Z,65376
2017-07-27T07:20:06.192Z,66880
2017-07-27T07:21:18.751Z,66432
2017-07-27T07:22:31.067Z,65056
2017-07-27T07:23:43.405Z,62304
2017-07-27T07:24:56.008Z,61824
2017-07-27T07:26:08.291Z,60800
2017-07-27T07:27:20.900Z,60096
2017-07-27T07:28:33.206Z,59264
2017-07-27T07:29:45.468Z,58048
2017-07-27T07:30:57.990Z,57664
2017-07-27T07:32:10.259Z,57600
2017-07-27T07:33:22.806Z,57408
2017-07-27T07:34:35.376Z,58496
2017-07-27T07:35:47.921Z,60256
2017-07-27T07:37:00.573Z,61600
2017-07-27T07:38:13.156Z,64800
2017-07-27T07:39:25.733Z,65344
2017-07-27T07:40:38.279Z,65248
2017-07-27T07:41:50.562Z,68896
2017-07-27T07:43:03.150Z,66080
2017-07-27T07:44:15.756Z,66688
2017-07-27T07:45:28.107Z,63968
2017-07-27T07:46:40.409Z,61856
2017-07-27T07:47:53.037Z,63168
2017-07-27T07:49:05.652Z,64512
2017-07-27T07:50:18.255Z,63104
2017-07-27T07:51:30.526Z,63552
2017-07-27T07:52:42.581Z,68352
2017-07-27T07:53:55.194Z,70336
2017-07-27T07:55:07.259Z,70464
2017-07-27T07:56:19.584Z,69696
2017-07-27T07:57:32.134Z,68928
2017-07-27T07:58:44.830Z,70400
2017-07-27T07:59:57.692Z,73952
2017-07-27T08:01:09.986Z,72960
2017-07-27T08:02:22.262Z,73600
2017-07-27T08:03:34.628Z,72352
2017-07-27T08:04:47.259Z,70048
2017-07-27T08:05:59.869Z,70016
2017-07-27T08:07:12.151Z,68160
2017-07-27T08:08:24.803Z,66560
2017-07-27T08:09:37.373Z,67968
2017-07-27T08:10:49.687Z,69120
2017-07-27T08:12:01.705Z,70368
2017-07-27T08:13:14.000Z,70560
2017-07-27T08:14:26.613Z,71616
2017-07-27T08:15:38.953Z,74144
2017-07-27T08:16:51.268Z,74944
2017-07-27T08:18:03.940Z,73120
2017-07-27T08:19:16.641Z,78144
2017-07-27T08:20:28.923Z,81952
2017-07-27T08:21:41.546Z,79488
2017-07-27T08:22:54.177Z,80288
2017-07-27T08:24:06.808Z,79136
2017-07-27T08:25:19.067Z,77152
2017-07-27T08:26:31.356Z,80256
2017-07-27T08:27:43.713Z,81376
2017-07-27T08:28:56.370Z,79360
2017-07-27T08:30:08.677Z,81952
2017-07-27T08:31:20.960Z,83104
2017-07-27T08:32:33.257Z,82336
2017-07-27T08:33:45.855Z,78400
2017-07-27T08:34:58.182Z,77472
2017-07-27T08:36:10.768Z,79936
2017-07-27T08:37:23.324Z,65984
2017-07-27T08:38:35.915Z,23584
2017-07-27T08:39:48.279Z,12048
2017-07-27T08:41:00.875Z,40128
2017-07-27T08:42:13.528Z,59776
2017-07-27T08:43:26.177Z,55232
2017-07-27T08:44:38.417Z,51840
2017-07-27T08:45:50.745Z,48608
2017-07-27T08:47:03.433Z,43648
2017-07-27T08:48:16.126Z,40608
2017-07-27T08:49:28.400Z,37120
2017-07-27T08:50:40.994Z,35296
2017-07-27T08:51:53.567Z,34752
2017-07-27T08:53:06.165Z,33120
2017-07-27T08:54:18.879Z,22784
2017-07-27T08:55:31.189Z,12732
2017-07-27T08:56:43.778Z,23456
2017-07-27T08:57:56.470Z,36288
2017-07-27T08:59:08.753Z,40864
2017-07-27T09:00:21.684Z,42144
2017-07-27T09:01:33.992Z,22272
2017-07-27T09:02:46.636Z,41728
2017-07-27T09:03:58.983Z,40384
2017-07-27T09:05:11.552Z,35808
2017-07-27T09:06:23.902Z,35712
2017-07-27T09:07:35.916Z,38208
2017-07-27T09:08:48.166Z,39872
2017-07-27T09:10:00.802Z,28512
2017-07-27T09:11:13.079Z,44960
2017-07-27T09:12:25.081Z,49984
2017-07-27T09:13:37.692Z,39104
2017-07-27T09:14:50.287Z,30784
2017-07-27T09:16:02.917Z,40352
2017-07-27T09:17:15.305Z,51072
2017-07-27T09:18:27.910Z,51520
2017-07-27T09:19:40.286Z,50048
2017-07-27T09:20:52.948Z,45984
2017-07-27T09:22:05.271Z,38048
2017-07-27T09:23:17.613Z,37536
2017-07-27T09:24:30.193Z,37024
2017-07-27T09:25:42.826Z,35392
2017-07-27T09:26:55.248Z,35488
2017-07-27T09:28:07.534Z,35904
2017-07-27T09:29:20.193Z,36352
2017-07-27T09:30:32.782Z,37632
2017-07-27T09:31:45.072Z,41376
2017-07-27T09:32:57.691Z,41408
2017-07-27T09:34:09.950Z,45888
2017-07-27T09:35:22.283Z,45344
2017-07-27T09:36:34.294Z,52064
2017-07-27T09:37:46.935Z,46272
2017-07-27T09:38:59.531Z,41888
2017-07-27T09:40:11.850Z,42208
2017-07-27T09:41:24.463Z,38592
2017-07-27T09:42:36.418Z,39008
2017-07-27T09:43:48.991Z,38272
2017-07-27T09:45:01.559Z,42976
2017-07-27T09:46:14.130Z,41152
2017-07-27T09:47:26.656Z,43264
2017-07-27T09:48:39.013Z,44032
2017-07-27T09:49:51.643Z,38432
2017-07-27T09:51:03.956Z,40032
2017-07-27T09:52:16.532Z,57824
2017-07-27T09:53:28.830Z,55872
2017-07-27T09:54:41.087Z,59904
2017-07-27T09:55:53.490Z,48832
2017-07-27T09:57:06.117Z,45664
2017-07-27T09:58:18.419Z,56896
2017-07-27T09:59:30.741Z,62400
2017-07-27T10:00:43.384Z,45696
2017-07-27T10:01:55.380Z,44096
2017-07-27T10:03:08.050Z,61024
2017-07-27T10:04:20.657Z,74848
2017-07-27T10:05:33.399Z,72352
2017-07-27T10:06:45.421Z,40800
2017-07-27T10:07:57.763Z,62720
2017-07-27T10:09:10.351Z,40640
2017-07-27T10:10:22.947Z,39744
2017-07-27T10:11:35.593Z,39968
2017-07-27T10:12:48.170Z,38176
2017-07-27T10:14:00.471Z,43488
2017-07-27T10:15:13.180Z,28288
2017-07-27T10:16:25.788Z,28416
2017-07-27T10:17:38.405Z,27200
2017-07-27T10:18:50.705Z,25312
2017-07-27T10:20:02.997Z,23072
2017-07-27T10:21:15.315Z,20864
2017-07-27T10:22:27.880Z,20160
2017-07-27T10:23:40.454Z,21568
2017-07-27T10:24:53.012Z,24288
2017-07-27T10:26:05.324Z,24800
2017-07-27T10:27:17.316Z,25216
2017-07-27T10:28:29.644Z,27936
2017-07-27T10:29:41.886Z,30976
2017-07-27T10:30:53.560Z,32736
2017-07-27T10:32:05.899Z,33440
2017-07-27T10:33:18.519Z,32832
2017-07-27T10:34:31.141Z,31616
2017-07-27T10:35:43.402Z,30496
2017-07-27T10:36:55.763Z,29120
2017-07-27T10:38:08.434Z,27616
2017-07-27T10:39:20.716Z,26912
2017-07-27T10:40:33.033Z,29280
2017-07-27T10:41:45.652Z,41760
2017-07-27T10:42:58.248Z,40192
2017-07-27T10:44:10.909Z,49472
2017-07-27T10:45:23.240Z,46016
2017-07-27T10:46:35.826Z,39104
2017-07-27T10:47:48.082Z,33280
2017-07-27T10:49:00.418Z,27456
2017-07-27T10:50:13.067Z,21728
2017-07-27T10:51:25.659Z,16832
2017-07-27T10:52:37.356Z,15116
2017-07-27T10:53:49.600Z,16328
2017-07-27T10:55:02.264Z,18944
2017-07-27T10:56:14.518Z,20608
2017-07-27T10:57:27.069Z,21056
2017-07-27T10:58:39.137Z,20416
2017-07-27T10:59:51.711Z,18688
2017-07-27T11:01:04.319Z,16568
2017-07-27T11:02:16.958Z,15192
2017-07-27T11:03:29.590Z,14352
2017-07-27T11:04:41.538Z,13652
2017-07-27T11:05:53.795Z,13168
2017-07-27T11:07:06.081Z,13024
2017-07-27T11:08:18.627Z,13056
2017-07-27T11:09:30.915Z,13056
2017-07-27T11:10:43.177Z,12924
2017-07-27T11:11:55.188Z,12624
2017-07-27T11:13:07.461Z,11968
2017-07-27T11:14:20.063Z,11460
2017-07-27T11:15:32.383Z,11436
2017-07-27T11:16:44.947Z,11788
2017-07-27T11:17:57.569Z,12172
2017-07-27T11:19:09.904Z,12444
2017-07-27T11:20:22.504Z,12768
2017-07-27T11:21:34.756Z,13152
2017-07-27T11:22:47.255Z,13792
2017-07-27T11:23:59.478Z,14544
2017-07-27T11:25:12.061Z,15040
2017-07-27T11:26:24.364Z,15436
2017-07-27T11:27:36.672Z,16056
2017-07-27T11:28:49.006Z,16860
2017-07-27T11:30:01.646Z,17416
2017-07-27T11:31:13.875Z,17588
2017-07-27T11:32:26.456Z,17324
2017-07-27T11:33:39.015Z,16464
2017-07-27T11:34:51.614Z,15224
2017-07-27T11:36:03.932Z,14112
2017-07-27T11:37:16.215Z,13620
2017-07-27T11:38:28.499Z,13704
2017-07-27T11:39:40.700Z,14060
2017-07-27T11:40:53.006Z,14928
2017-07-27T11:42:04.666Z,16472
2017-07-27T11:43:17.250Z,17952
2017-07-27T11:44:29.528Z,17728
2017-07-27T11:45:42.081Z,15508
2017-07-27T11:46:54.678Z,13912
2017-07-27T11:48:06.967Z,14172
2017-07-27T11:49:19.245Z,15480
2017-07-27T11:50:31.208Z,16736
2017-07-27T11:51:43.461Z,15968
2017-07-27T11:52:55.749Z,14596
2017-07-27T11:54:07.733Z,13684
2017-07-27T11:55:20.343Z,12748
2017-07-27T11:56:32.656Z,12432
2017-07-27T11:57:45.313Z,14060
2017-07-27T11:58:57.289Z,17192
2017-07-27T12:00:09.810Z,18048
2017-07-27T12:01:22.414Z,15704
2017-07-27T12:02:34.418Z,14588
2017-07-27T12:03:47.056Z,14612
2017-07-27T12:04:59.635Z,13500
2017-07-27T12:06:11.932Z,13320
2017-07-27T12:07:24.533Z,14944
2017-07-27T12:08:37.115Z,17372
2017-07-27T12:09:49.417Z,17468
2017-07-27T12:11:01.999Z,14736
2017-07-27T12:12:14.296Z,12444
2017-07-27T12:13:26.888Z,11376
2017-07-27T12:14:39.191Z,10536
2017-07-27T12:15:51.804Z,9992
2017-07-27T12:17:04.154Z,10128
2017-07-27T12:18:16.745Z,10548
2017-07-27T12:19:29.034Z,11184
2017-07-27T12:20:41.295Z,11952
2017-07-27T12:21:53.528Z,12796
2017-07-27T12:23:06.148Z,12944
2017-07-27T12:24:18.747Z,12520
2017-07-27T12:25:31.070Z,11148
2017-07-27T12:26:43.640Z,9840
2017-07-27T12:27:56.293Z,9084
2017-07-27T12:29:08.535Z,6288
2017-07-27T12:30:21.099Z,5440
2017-07-27T12:31:33.729Z,6276
2017-07-27T12:32:46.008Z,5632
2017-07-27T12:33:58.587Z,7192
2017-07-27T12:35:11.175Z,6796
2017-07-27T12:36:23.780Z,6080
2017-07-27T12:37:36.300Z,10424
2017-07-27T12:38:48.930Z,18272
2017-07-27T12:40:01.240Z,22848
2017-07-27T12:41:13.915Z,19872
2017-07-27T12:42:26.532Z,25312
2017-07-27T12:43:38.815Z,25760
2017-07-27T12:44:51.149Z,23520
2017-07-27T12:46:03.428Z,21152
2017-07-27T12:47:15.691Z,19552
2017-07-27T12:48:28.262Z,18720
2017-07-27T12:49:40.830Z,18272
2017-07-27T12:50:53.414Z,18528
2017-07-27T12:52:05.702Z,18432
2017-07-27T12:53:18.015Z,17692
2017-07-27T12:54:30.609Z,16772
2017-07-27T12:55:42.643Z,16308
2017-07-27T12:56:55.207Z,13012
2017-07-27T12:58:06.834Z,11008
2017-07-27T12:59:18.775Z,11136
2017-07-27T13:00:31.379Z,11372
2017-07-27T13:01:43.668Z,11228
2017-07-27T13:02:56.223Z,10648
2017-07-27T13:04:08.520Z,11788
2017-07-27T13:05:21.081Z,12548
2017-07-27T13:06:33.670Z,11596
2017-07-27T13:07:46.239Z,9640
2017-07-27T13:08:58.218Z,8712
2017-07-27T13:10:10.505Z,6316
2017-07-27T13:11:22.733Z,5828
2017-07-27T13:12:34.430Z,6376
2017-07-27T13:13:46.993Z,6964
2017-07-27T13:14:59.272Z,8404
2017-07-27T13:16:11.581Z,9684
2017-07-27T13:17:23.895Z,11772
2017-07-27T13:18:36.163Z,12668
2017-07-27T13:19:48.742Z,10668
2017-07-27T13:21:01.327Z,9252
2017-07-27T13:22:13.633Z,8508
2017-07-27T13:23:26.245Z,7380
2017-07-27T13:24:38.517Z,7268
2017-07-27T13:25:51.127Z,9900
2017-07-27T13:27:03.383Z,10968
2017-07-27T13:28:15.627Z,11588
2017-07-27T13:29:27.885Z,13444
2017-07-27T13:30:40.472Z,14580
2017-07-27T13:31:52.739Z,14252
2017-07-27T13:33:05.312Z,12556
2017-07-27T13:34:17.887Z,12228
2017-07-27T13:35:30.461Z,14824
2017-07-27T13:36:43.001Z,16136
2017-07-27T13:37:55.573Z,16560
2017-07-27T13:39:08.191Z,17696
2017-07-27T13:40:20.760Z,20064
2017-07-27T13:41:33.038Z,20192
2017-07-27T13:42:45.604Z,16808
2017-07-27T13:43:58.249Z,17856
2017-07-27T13:45:10.237Z,20128
2017-07-27T13:46:22.793Z,20096
2017-07-27T13:47:35.097Z,19328
2017-07-27T13:48:47.713Z,24768
2017-07-27T13:49:59.715Z,27008
2017-07-27T13:51:12.057Z,26368
2017-07-27T13:52:24.320Z,24480
2017-07-27T13:53:36.844Z,20800
2017-07-27T13:54:49.150Z,20032
2017-07-27T13:56:01.433Z,20960
2017-07-27T13:57:14.065Z,23168
2017-07-27T13:58:26.061Z,26432
2017-07-27T13:59:38.723Z,29120
2017-07-27T14:00:51.333Z,24800
2017-07-27T14:02:03.645Z,24864
2017-07-27T14:03:16.276Z,22528
2017-07-27T14:04:28.858Z,19744
2017-07-27T14:05:41.169Z,21504
2017-07-27T14:06:53.775Z,23520
2017-07-27T14:08:06.304Z,25600
2017-07-27T14:09:18.914Z,25088
2017-07-27T14:10:31.502Z,25408
2017-07-27T14:11:44.187Z,24160
2017-07-27T14:12:56.846Z,39616
2017-07-27T14:14:08.846Z,51072
2017-07-27T14:15:20.818Z,38048
2017-07-27T14:16:33.138Z,34432
2017-07-27T14:17:45.692Z,32064
2017-07-27T14:18:58.307Z,29664
2017-07-27T14:20:10.625Z,80672
2017-07-27T14:21:23.234Z,59776
2017-07-27T14:22:34.919Z,90688
2017-07-27T14:23:47.568Z,98656
2017-07-27T14:24:59.861Z,95360
2017-07-27T14:26:12.169Z,27648
2017-07-27T14:27:24.488Z,36512
2017-07-27T14:28:37.175Z,30336
2017-07-27T14:29:49.705Z,15864
2017-07-27T14:31:01.366Z,14968
2017-07-27T14:32:13.935Z,22336
2017-07-27T14:33:26.199Z,36672
2017-07-27T14:34:38.756Z,28864
2017-07-27T14:35:50.750Z,19808
2017-07-27T14:37:03.371Z,10016
2017-07-27T14:38:16.021Z,11208
2017-07-27T14:39:28.629Z,15984
2017-07-27T14:40:41.232Z,11204
2017-07-27T14:41:53.253Z,8944
2017-07-27T14:43:05.526Z,7808
2017-07-27T14:44:17.819Z,10932
2017-07-27T14:45:30.070Z,9232
2017-07-27T14:46:42.593Z,13180
2017-07-27T14:47:55.148Z,13528
2017-07-27T14:49:07.803Z,12252
2017-07-27T14:50:20.412Z,13028
2017-07-27T14:51:32.415Z,13620
2017-07-27T14:52:44.432Z,13764
2017-07-27T14:53:57.048Z,14596
2017-07-27T14:55:09.351Z,15328
2017-07-27T14:56:21.956Z,17248
2017-07-27T14:57:34.525Z,17760
2017-07-27T14:58:46.763Z,16684
2017-07-27T14:59:59.396Z,16640
2017-07-27T15:01:11.663Z,17056
2017-07-27T15:02:24.276Z,16720
2017-07-27T15:03:36.811Z,17184
2017-07-27T15:04:49.101Z,16600
2017-07-27T15:06:01.633Z,16728
2017-07-27T15:07:13.968Z,16692
2017-07-27T15:08:26.505Z,17024
2017-07-27T15:09:39.191Z,15080
2017-07-27T15:10:51.815Z,13256
2017-07-27T15:12:03.810Z,12164
2017-07-27T15:13:16.134Z,11636
2017-07-27T15:14:28.722Z,11472
2017-07-27T15:15:40.771Z,11532
2017-07-27T15:16:52.773Z,11468
2017-07-27T15:18:05.443Z,11984
2017-07-27T15:19:18.041Z,12088
2017-07-27T15:20:30.659Z,12008
2017-07-27T15:21:43.277Z,11984
2017-07-27T15:22:55.566Z,11176
2017-07-27T15:24:07.504Z,10776
2017-07-27T15:25:19.790Z,10880
2017-07-27T15:26:32.127Z,11308
2017-07-27T15:27:44.716Z,12064
2017-07-27T15:28:57.312Z,11984
2017-07-27T15:30:09.324Z,11336
2017-07-27T15:31:21.878Z,11524
2017-07-27T15:32:34.158Z,11912
2017-07-27T15:33:45.837Z,12024
2017-07-27T15:34:57.835Z,11100
2017-07-27T15:36:10.143Z,11344
2017-07-27T15:37:22.091Z,12364
2017-07-27T15:38:34.656Z,12900
2017-07-27T15:39:47.207Z,13192
2017-07-27T15:40:59.529Z,13392
2017-07-27T15:42:11.782Z,13352
2017-07-27T15:43:24.343Z,13364
2017-07-27T15:44:36.942Z,13616
2017-07-27T15:45:49.550Z,13616
2017-07-27T15:47:01.863Z,13384
2017-07-27T15:48:14.139Z,12888
2017-07-27T15:49:26.866Z,12296
2017-07-27T15:50:39.420Z,11868
2017-07-27T15:51:52.016Z,11756
2017-07-27T15:53:04.588Z,11564
2017-07-27T15:54:16.835Z,11340
2017-07-27T15:55:29.081Z,11064
2017-07-27T15:56:41.625Z,11024
2017-07-27T15:57:54.514Z,11880
2017-07-27T15:59:06.443Z,12596
2017-07-27T16:00:18.989Z,12928
2017-07-27T16:01:31.559Z,13220
2017-07-27T16:02:44.248Z,13720
2017-07-27T16:03:56.527Z,14384
2017-07-27T16:05:08.828Z,15024